Terminal Aerodrome Forecast
Issued by NWS

Home | Current Version | Previous Version | Text Only | Print | Product List | Glossary On
Versions: 1 2 3 4 5 6 7 8 9 10 11 12 13 14 15
000
FTUS46 KSGX 261902 AAA
TAFONT
TAF AMD
KONT 261902Z 2619/2724 25007KT P6SM SCT040
     FM262100 25011G18KT P6SM SKC
     FM270800 25007KT P6SM SCT015 BKN035=

USA.gov is the U.S. government's official web portal to all federal, state and local government web resources and services.